METAR Data
IDs: Format: Raw Decoded Include TAF

Data at: 0755 UTC 07 Apr 2020

METAR for:KIAH (Houston/Bush Intl, TX, US)
Text:KIAH 070753Z 15005KT 1/4SM FG VV002 23/22 A2998 RMK AO2 SLP151 T02280222
Temperature: 22.8°C ( 73°F)
Dewpoint: 22.2°C ( 72°F) [RH = 96%]
Pressure (altimeter):29.98 inches Hg (1015.3 mb) [Sea level pressure: 1015.1 mb]
Winds:from the SSE (150 degrees) at 6 MPH (5 knots; 2.6 m/s)
Visibility: 0.25 sm ( 0.40 km)
Ceiling:indefinite ceiling with vertical visibility of 200 feet AGL
Clouds:obscured sky
Weather:FG (fog)

METAR for:KHOU (Houston/Hobby Arpt, TX, US)
Text:KHOU 070753Z 16006KT 1 1/2SM BR OVC002 23/22 A2997 RMK AO2 RAB21E34 SLP154 P0001 T02330222
Temperature: 23.3°C ( 74°F)
Dewpoint: 22.2°C ( 72°F) [RH = 94%]
Pressure (altimeter):29.97 inches Hg (1015.0 mb) [Sea level pressure: 1015.4 mb]
Winds:from the SSE (160 degrees) at 7 MPH (6 knots; 3.1 m/s)
Visibility: 1.50 sm ( 2.41 km)
Ceiling:200 feet AGL
Clouds: overcast cloud deck at 200 feet AGL
Weather:BR (mist)

METAR for:KGLS (Galveston/Scholes In, TX, US)
Text:KGLS 070752Z AUTO 13008KT 6SM BR OVC004 24/23 A2999 RMK AO2 SLP154 T02390228
Temperature: 23.9°C ( 75°F)
Dewpoint: 22.8°C ( 73°F) [RH = 94%]
Pressure (altimeter):29.99 inches Hg (1015.7 mb) [Sea level pressure: 1015.4 mb]
Winds:from the SE (130 degrees) at 9 MPH (8 knots; 4.1 m/s)
Visibility: 6 sm ( 10 km)
Ceiling:400 feet AGL
Clouds: overcast cloud deck at 400 feet AGL
Weather:BR (mist)
QC Flag:automated observation with no human augmentation

METAR for:KLVJ (Houston/Pearland Rgn, TX, US)
Text:KLVJ 070753Z AUTO 16005KT 1 1/2SM BR OVC002 23/22 A2999 RMK AO2 RAB02E15 SLP155 P0000 T02330222
Temperature: 23.3°C ( 74°F)
Dewpoint: 22.2°C ( 72°F) [RH = 94%]
Pressure (altimeter):29.99 inches Hg (1015.7 mb) [Sea level pressure: 1015.5 mb]
Winds:from the SSE (160 degrees) at 6 MPH (5 knots; 2.6 m/s)
Visibility: 1.50 sm ( 2.41 km)
Ceiling:200 feet AGL
Clouds: overcast cloud deck at 200 feet AGL
Weather:BR (mist)
QC Flag:automated observation with no human augmentation

METAR for:KSGR (Houston/Sugar Land R, TX, US)
Text:KSGR 070735Z AUTO 16005KT 1 1/4SM BR OVC002 23/23 A2998 RMK AO2 T02280228
Temperature: 22.8°C ( 73°F)
Dewpoint: 22.8°C ( 73°F) [RH = 100%]
Pressure (altimeter):29.98 inches Hg (1015.3 mb)
Winds:from the SSE (160 degrees) at 6 MPH (5 knots; 2.6 m/s)
Visibility: 1.25 sm ( 2.01 km)
Ceiling:200 feet AGL
Clouds: overcast cloud deck at 200 feet AGL
Weather:BR (mist)
QC Flag:automated observation with no human augmentation

METAR for:KDWH (Houston/Hooks Mem, TX, US)
Text:KDWH 070753Z AUTO 00000KT 2SM BR OVC002 22/21 A2998 RMK AO2 SLP150 T02220211
Temperature: 22.2°C ( 72°F)
Dewpoint: 21.1°C ( 70°F) [RH = 93%]
Pressure (altimeter):29.98 inches Hg (1015.3 mb) [Sea level pressure: 1015.0 mb]
Winds:calm
Visibility: 2.00 sm ( 3.22 km)
Ceiling:200 feet AGL
Clouds: overcast cloud deck at 200 feet AGL
Weather:BR (mist)
QC Flag:automated observation with no human augmentation

METAR for:KCLL (College Station/East, TX, US)
Text:KCLL 070753Z AUTO 17008KT 4SM BR OVC002 22/22 A2997 RMK AO2 SLP143 T02220217 $
Temperature: 22.2°C ( 72°F)
Dewpoint: 21.7°C ( 71°F) [RH = 97%]
Pressure (altimeter):29.97 inches Hg (1015.0 mb) [Sea level pressure: 1014.3 mb]
Winds:from the S (170 degrees) at 9 MPH (8 knots; 4.1 m/s)
Visibility: 4 sm ( 6 km)
Ceiling:200 feet AGL
Clouds: overcast cloud deck at 200 feet AGL
Weather:BR (mist)
QC Flag:automated observation with no human augmentation; SOME DATA ABOVE MAY BE INACCURATE!!!"$" is an indication the sensor requires maintenance.

METAR for:KUTS (Huntsville Muni, TX, US)
Text:KUTS 070753Z AUTO 00000KT 2SM BR OVC003 22/21 A2999 RMK AO2 SLP150 T02220211
Temperature: 22.2°C ( 72°F)
Dewpoint: 21.1°C ( 70°F) [RH = 93%]
Pressure (altimeter):29.99 inches Hg (1015.7 mb) [Sea level pressure: 1015.0 mb]
Winds:calm
Visibility: 2.00 sm ( 3.22 km)
Ceiling:300 feet AGL
Clouds: overcast cloud deck at 300 feet AGL
Weather:BR (mist)
QC Flag:automated observation with no human augmentation

METAR for:KCXO (Conroe/Executive Arp, TX, US)
Text:KCXO 070753Z AUTO 00000KT 1/2SM FG VV002 22/22 A3000 RMK AO2 SLP154 T02220217
Temperature: 22.2°C ( 72°F)
Dewpoint: 21.7°C ( 71°F) [RH = 97%]
Pressure (altimeter):30.00 inches Hg (1016.0 mb) [Sea level pressure: 1015.4 mb]
Winds:calm
Visibility: 0.50 sm ( 0.80 km)
Ceiling:indefinite ceiling with vertical visibility of 200 feet AGL
Clouds:obscured sky
Weather:FG (fog)
QC Flag:automated observation with no human augmentation

METAR for:KLBX (Angleton/Texas Gulf, TX, US)
Text:KLBX 070753Z AUTO 00000KT 4SM BR OVC004 23/22 A2998 RMK AO2 RAE01B14E34 SLP152 P0001 T02330222 $
Temperature: 23.3°C ( 74°F)
Dewpoint: 22.2°C ( 72°F) [RH = 94%]
Pressure (altimeter):29.98 inches Hg (1015.3 mb) [Sea level pressure: 1015.2 mb]
Winds:calm
Visibility: 4 sm ( 6 km)
Ceiling:400 feet AGL
Clouds: overcast cloud deck at 400 feet AGL
Weather:BR (mist)
QC Flag:automated observation with no human augmentation; SOME DATA ABOVE MAY BE INACCURATE!!!"$" is an indication the sensor requires maintenance.

METAR for:KPSX (Palacios Muni, TX, US)
Text:KPSX 070753Z AUTO 15005KT 1/4SM FG VV002 23/23 A2998 RMK AO2 SLP150 T02330228
Temperature: 23.3°C ( 74°F)
Dewpoint: 22.8°C ( 73°F) [RH = 97%]
Pressure (altimeter):29.98 inches Hg (1015.3 mb) [Sea level pressure: 1015.0 mb]
Winds:from the SSE (150 degrees) at 6 MPH (5 knots; 2.6 m/s)
Visibility: 0.25 sm ( 0.40 km)
Ceiling:indefinite ceiling with vertical visibility of 200 feet AGL
Clouds:obscured sky
Weather:FG (fog)
QC Flag:automated observation with no human augmentation